Time;durP1;ratioP1;P1;durP2;ratioP2;P2;SDS_P1;SDS_P2;PMS_P1;PMS_P2;Temp;Humidity;BMP_temperature;BMP_pressure;BME280_temperature;BME280_humidity;BME280_pressure;Samples;Min_cycle;Max_cycle;Signal;HPM_P1;HPM_P2
2022/04/18 00:00:18;;;;;;;;;;;;;;;;;;5117030;28;19915;-43
2022/04/18 00:02:43;;;;;;;;;;;;;;;;;;5116845;28;19911;-44
2022/04/18 00:05:09;;;;;;;;;;;;;;;;;;5116478;28;20359;-43
2022/04/18 00:07:34;;;;;;;;;;;;;;;;;;5117026;28;19929;-43
2022/04/18 00:09:59;;;;;;;;;;;;;;;;;;5116597;28;19965;-43
2022/04/18 00:12:24;;;;;;;;;;;;;;;;;;5116665;28;19915;-43
2022/04/18 00:14:49;;;;;;;;;;;;;;;;;;5116439;28;19960;-44
2022/04/18 00:17:14;;;;;;;;;;;;;;;;;;5116761;28;19939;-43
2022/04/18 00:19:41;;;;;;;;;;;;;;;;;;5116874;28;20337;-44
2022/04/18 00:22:06;;;;;;;;;;;;;;;;;;5116518;28;19929;-44
2022/04/18 00:24:31;;;;;;;;;;;;;;;;;;5115841;28;19915;-43
2022/04/18 00:26:56;;;;;;;;;;;;;;;;;;5116464;28;20374;-44
2022/04/18 00:29:21;;;;;;;;;;;;;;;;;;5116235;28;19912;-44
2022/04/18 00:31:47;;;;;;;;;;;;;;;;;;5116472;28;20037;-43
2022/04/18 00:34:14;;;;;;;;;;;;;;;;;;5116787;28;20069;-43
2022/04/18 00:36:39;;;;;;;;;;;;;;;;;;5116209;28;19947;-44
2022/04/18 00:39:04;;;;;;;;;;;;;;;;;;5116030;28;19912;-43
2022/04/18 00:41:29;;;;;;;;;;;;;;;;;;5115942;28;19912;-44
2022/04/18 00:43:55;;;;;;;;;;;;;;;;;;5116046;28;20362;-43
2022/04/18 00:46:21;;;;;;;;;;;;;;;;;;5115867;28;19919;-42
2022/04/18 00:48:46;;;;;;;;;;;;;;;;;;5115754;28;19908;-43
2022/04/18 00:51:11;;;;;;;;;;;;;;;;;;5115835;28;19915;-42
2022/04/18 00:53:36;;;;;;;;;;;;;;;;;;5115739;28;19994;-42
2022/04/18 00:56:01;;;;;;;;;;;;;;;;;;5114360;28;19912;-44
2022/04/18 00:58:26;;;;;;;;;;;;;;;;;;5115427;28;20282;-44
2022/04/18 01:00:52;;;;;;;;;;;;;;;;;;5115679;28;20385;-45
2022/04/18 01:03:19;;;;;;;;;;;;;;;;;;5115600;28;19908;-44
2022/04/18 01:05:44;;;;;;;;;;;;;;;;;;5115952;28;20445;-44
2022/04/18 01:08:09;;;;;;;;;;;;;;;;;;5116275;28;19978;-44
2022/04/18 01:10:34;;;;;;;;;;;;;;;;;;5116202;28;19954;-44
2022/04/18 01:12:59;;;;;;;;;;;;;;;;;;5115938;28;19912;-41
2022/04/18 01:15:24;;;;;;;;;;;;;;;;;;5115815;28;19915;-43
2022/04/18 01:17:50;;;;;;;;;;;;;;;;;;5116047;28;19914;-43
2022/04/18 01:20:15;;;;;;;;;;;;;;;;;;5116053;28;19939;-43
2022/04/18 01:22:42;;;;;;;;;;;;;;;;;;5115961;28;20438;-42
2022/04/18 01:30:35;;;;;;;;;;;;;;;;;;5115992;28;19933;-44
2022/04/18 01:33:00;;;;;;;;;;;;;;;;;;5115410;28;20359;-43
2022/04/18 01:35:25;;;;;;;;;;;;;;;;;;5115543;28;19999;-43
2022/04/18 01:37:51;;;;;;;;;;;;;;;;;;5115571;28;19915;-45
2022/04/18 01:40:16;;;;;;;;;;;;;;;;;;5115996;28;19915;-44
2022/04/18 01:42:41;;;;;;;;;;;;;;;;;;5115635;28;19922;-44
2022/04/18 01:45:06;;;;;;;;;;;;;;;;;;5115799;28;19912;-44
2022/04/18 01:47:31;;;;;;;;;;;;;;;;;;5115926;28;19915;-43
2022/04/18 01:49:56;;;;;;;;;;;;;;;;;;5115260;28;20377;-43
2022/04/18 01:52:21;;;;;;;;;;;;;;;;;;5100711;22;19933;-44
2022/04/18 01:54:46;;;;;;;;;;;;;;;;;;5057218;28;19909;-43
2022/04/18 01:57:11;;;;;;;;;;;;;;;;;;5075334;28;19916;-46
2022/04/18 01:59:37;;;;;;;;;;;;;;;;;;5075269;28;19921;-44
2022/04/18 02:02:02;;;;;;;;;;;;;;;;;;5075287;28;19909;-43
2022/04/18 02:04:27;;;;;;;;;;;;;;;;;;5074790;28;19963;-43
2022/04/18 02:06:53;;;;;;;;;;;;;;;;;;5075890;28;19915;-43
2022/04/18 02:09:18;;;;;;;;;;;;;;;;;;5078586;28;20078;-43
2022/04/18 02:11:43;;;;;;;;;;;;;;;;;;5078708;28;19916;-43
2022/04/18 02:14:08;;;;;;;;;;;;;;;;;;5078701;28;19912;-44
2022/04/18 02:16:33;;;;;;;;;;;;;;;;;;5078530;28;19948;-44
2022/04/18 02:18:58;;;;;;;;;;;;;;;;;;5078472;28;20310;-43
2022/04/18 02:21:24;;;;;;;;;;;;;;;;;;5078573;28;19970;-45
2022/04/18 02:23:49;;;;;;;;;;;;;;;;;;5093670;28;19966;-43
2022/04/18 02:26:14;;;;;;;;;;;;;;;;;;5097671;28;19923;-44
2022/04/18 02:28:40;;;;;;;;;;;;;;;;;;5079655;28;19923;-44
2022/04/18 02:31:06;;;;;;;;;;;;;;;;;;5078639;28;19915;-43
2022/04/18 02:33:31;;;;;;;;;;;;;;;;;;5078447;28;19912;-43
2022/04/18 02:35:56;;;;;;;;;;;;;;;;;;5078229;28;19950;-42
2022/04/18 02:38:21;;;;;;;;;;;;;;;;;;5078218;28;19912;-43
2022/04/18 02:40:46;;;;;;;;;;;;;;;;;;5060157;28;20363;-42
2022/04/18 02:43:12;;;;;;;;;;;;;;;;;;5078186;28;20330;-43
2022/04/18 02:45:37;;;;;;;;;;;;;;;;;;5078182;28;20359;-42
2022/04/18 02:48:02;;;;;;;;;;;;;;;;;;5077679;28;19991;-45
2022/04/18 02:50:27;;;;;;;;;;;;;;;;;;5096624;28;19966;-43
2022/04/18 02:52:52;;;;;;;;;;;;;;;;;;5097599;28;19920;-42
2022/04/18 02:55:17;;;;;;;;;;;;;;;;;;5097844;28;19920;-42
2022/04/18 02:57:42;;;;;;;;;;;;;;;;;;5108722;28;19911;-41
2022/04/18 03:00:08;;;;;;;;;;;;;;;;;;5118510;28;20003;-44
2022/04/18 03:02:33;;;;;;;;;;;;;;;;;;5118223;28;19908;-44
2022/04/18 03:04:58;;;;;;;;;;;;;;;;;;5118047;28;20006;-44
2022/04/18 03:07:23;;;;;;;;;;;;;;;;;;5117937;28;19994;-43
2022/04/18 03:09:48;;;;;;;;;;;;;;;;;;5118079;28;19981;-44
2022/04/18 03:12:13;;;;;;;;;;;;;;;;;;5118146;28;19908;-43
2022/04/18 03:14:38;;;;;;;;;;;;;;;;;;5117677;28;19999;-44
2022/04/18 03:17:03;;;;;;;;;;;;;;;;;;5117696;28;19907;-43
2022/04/18 03:19:28;;;;;;;;;;;;;;;;;;5116956;28;20378;-44
2022/04/18 03:21:54;;;;;;;;;;;;;;;;;;5118059;28;19915;-43
2022/04/18 03:24:19;;;;;;;;;;;;;;;;;;5117865;28;19915;-43
2022/04/18 03:26:45;;;;;;;;;;;;;;;;;;5118227;28;20302;-44
2022/04/18 03:29:10;;;;;;;;;;;;;;;;;;5117903;28;20362;-44
2022/04/18 03:31:36;;;;;;;;;;;;;;;;;;5117626;28;20357;-44
2022/04/18 03:34:01;;;;;;;;;;;;;;;;;;5117600;28;19915;-43
2022/04/18 03:41:54;;;;;;;;;;;;;;;;;;5117785;28;19914;-43
2022/04/18 03:44:19;;;;;;;;;;;;;;;;;;5117629;28;19912;-43
2022/04/18 03:46:44;;;;;;;;;;;;;;;;;;5117252;28;19907;-44
2022/04/18 03:49:09;;;;;;;;;;;;;;;;;;5117277;28;19908;-43
2022/04/18 03:51:34;;;;;;;;;;;;;;;;;;5117215;28;19908;-43
2022/04/18 03:53:59;;;;;;;;;;;;;;;;;;5117314;28;19926;-43
2022/04/18 03:56:25;;;;;;;;;;;;;;;;;;5117442;28;19908;-43
2022/04/18 03:58:50;;;;;;;;;;;;;;;;;;5116860;28;20282;-43
2022/04/18 04:01:15;;;;;;;;;;;;;;;;;;5117433;28;19908;-43
2022/04/18 04:03:40;;;;;;;;;;;;;;;;;;5117375;28;19919;-43
2022/04/18 04:06:05;;;;;;;;;;;;;;;;;;5117432;28;19918;-43
2022/04/18 04:08:32;;;;;;;;;;;;;;;;;;5117199;28;20323;-44
2022/04/18 04:10:57;;;;;;;;;;;;;;;;;;5117066;28;19907;-43
2022/04/18 04:13:22;;;;;;;;;;;;;;;;;;5116907;28;19918;-43
2022/04/18 04:15:47;;;;;;;;;;;;;;;;;;5116887;28;19943;-43
2022/04/18 04:18:12;;;;;;;;;;;;;;;;;;5116966;28;19961;-43
2022/04/18 04:20:37;;;;;;;;;;;;;;;;;;5117501;28;19931;-44
2022/04/18 04:23:02;;;;;;;;;;;;;;;;;;5116777;28;19919;-43
2022/04/18 04:25:27;;;;;;;;;;;;;;;;;;5116491;28;19919;-43
2022/04/18 04:27:52;;;;;;;;;;;;;;;;;;5116575;28;19908;-44
2022/04/18 04:30:18;;;;;;;;;;;;;;;;;;5116480;28;20357;-43
2022/04/18 04:32:43;;;;;;;;;;;;;;;;;;5116302;28;20439;-44
2022/04/18 04:35:08;;;;;;;;;;;;;;;;;;5116478;28;19930;-44
2022/04/18 04:37:33;;;;;;;;;;;;;;;;;;5115860;28;20332;-43
2022/04/18 04:39:58;;;;;;;;;;;;;;;;;;5116492;28;19908;-43
2022/04/18 04:42:23;;;;;;;;;;;;;;;;;;5098212;28;19907;-44
2022/04/18 04:44:48;;;;;;;;;;;;;;;;;;5098204;28;19919;-44
2022/04/18 04:47:13;;;;;;;;;;;;;;;;;;5096477;28;19916;-44
2022/04/18 04:49:38;;;;;;;;;;;;;;;;;;5095966;28;19915;-43
2022/04/18 04:52:04;;;;;;;;;;;;;;;;;;5096388;28;19920;-43
2022/04/18 04:54:29;;;;;;;;;;;;;;;;;;5096312;28;19931;-43
2022/04/18 04:56:54;;;;;;;;;;;;;;;;;;5096536;28;19908;-43
2022/04/18 04:59:19;;;;;;;;;;;;;;;;;;5096071;28;19908;-44
2022/04/18 05:01:44;;;;;;;;;;;;;;;;;;5096258;28;19912;-43
2022/04/18 05:04:09;;;;;;;;;;;;;;;;;;5096007;28;20351;-43
2022/04/18 05:06:34;;;;;;;;;;;;;;;;;;5096329;28;19927;-43
2022/04/18 05:08:59;;;;;;;;;;;;;;;;;;5096210;28;19919;-44
2022/04/18 05:11:25;;;;;;;;;;;;;;;;;;5096128;28;19979;-43
2022/04/18 05:13:50;;;;;;;;;;;;;;;;;;5096257;28;19908;-43
2022/04/18 05:16:15;;;;;;;;;;;;;;;;;;5108793;28;19912;-43
2022/04/18 05:18:40;;;;;;;;;;;;;;;;;;5116527;28;19916;-44
2022/04/18 05:21:05;;;;;;;;;;;;;;;;;;5116316;28;19916;-44
2022/04/18 05:23:30;;;;;;;;;;;;;;;;;;5116259;28;19908;-43
2022/04/18 05:25:55;;;;;;;;;;;;;;;;;;5115859;28;19920;-44
2022/04/18 05:28:20;;;;;;;;;;;;;;;;;;5098299;28;20372;-43
2022/04/18 05:30:46;;;;;;;;;;;;;;;;;;5116006;28;19908;-43
2022/04/18 05:33:11;;;;;;;;;;;;;;;;;;5116371;28;20337;-43
2022/04/18 05:35:36;;;;;;;;;;;;;;;;;;5115941;28;19914;-43
2022/04/18 05:38:01;;;;;;;;;;;;;;;;;;5116065;28;19931;-43
2022/04/18 05:40:27;;;;;;;;;;;;;;;;;;5115926;28;20366;-44
2022/04/18 05:42:52;;;;;;;;;;;;;;;;;;5118606;28;19914;-43
2022/04/18 05:45:18;;;;;;;;;;;;;;;;;;5113083;28;20010;-44
2022/04/18 05:47:43;;;;;;;;;;;;;;;;;;5099459;28;19961;-43
2022/04/18 05:50:08;;;;;;;;;;;;;;;;;;5099192;28;20309;-44
2022/04/18 05:52:33;;;;;;;;;;;;;;;;;;5098810;28;19920;-44
2022/04/18 05:54:58;;;;;;;;;;;;;;;;;;5099024;28;19915;-43
2022/04/18 05:57:23;;;;;;;;;;;;;;;;;;5099115;28;19908;-43
2022/04/18 05:59:48;;;;;;;;;;;;;;;;;;5098955;28;19963;-43
2022/04/18 06:02:14;;;;;;;;;;;;;;;;;;5098937;28;20382;-44
2022/04/18 06:04:39;;;;;;;;;;;;;;;;;;5100459;28;20275;-43
2022/04/18 06:07:04;;;;;;;;;;;;;;;;;;5098887;28;20441;-43
2022/04/18 06:09:29;;;;;;;;;;;;;;;;;;5099240;28;19912;-44
2022/04/18 06:11:54;;;;;;;;;;;;;;;;;;5098865;28;20409;-44
2022/04/18 06:14:19;;;;;;;;;;;;;;;;;;5098839;28;19912;-43
2022/04/18 06:16:45;;;;;;;;;;;;;;;;;;5098929;28;19912;-44
2022/04/18 06:19:10;;;;;;;;;;;;;;;;;;5099094;28;19912;-43
2022/04/18 06:21:35;;;;;;;;;;;;;;;;;;5098771;28;19912;-43
2022/04/18 06:24:00;;;;;;;;;;;;;;;;;;5098945;28;20010;-44
2022/04/18 06:26:25;;;;;;;;;;;;;;;;;;5111226;28;20277;-44
2022/04/18 06:28:50;;;;;;;;;;;;;;;;;;5119049;28;20362;-44
2022/04/18 06:31:15;;;;;;;;;;;;;;;;;;5119072;28;19998;-44
2022/04/18 06:33:41;;;;;;;;;;;;;;;;;;5119109;28;19953;-44
2022/04/18 06:36:06;;;;;;;;;;;;;;;;;;5118775;28;19919;-44
2022/04/18 06:38:31;;;;;;;;;;;;;;;;;;5119010;28;19954;-44
2022/04/18 06:40:56;;;;;;;;;;;;;;;;;;5118772;28;20426;-43
2022/04/18 06:43:21;;;;;;;;;;;;;;;;;;5118840;28;19919;-44
2022/04/18 06:45:46;;;;;;;;;;;;;;;;;;5118908;28;19919;-43
2022/04/18 06:48:11;;;;;;;;;;;;;;;;;;5118820;28;20006;-43
2022/04/18 06:50:36;;;;;;;;;;;;;;;;;;5119064;28;19994;-43
2022/04/18 06:53:02;;;;;;;;;;;;;;;;;;5117677;28;20022;-45
2022/04/18 06:56:58;;;;;;;;;;;;;;;;;;5109683;28;20381;-43
2022/04/18 06:58:12;;;;;;;;;;;;;;;;;;5098280;28;19920;-44
2022/04/18 07:00:37;;;;;;;;;;;;;;;;;;5098165;28;19908;-43
2022/04/18 07:03:02;;;;;;;;;;;;;;;;;;5097918;28;19908;-46
2022/04/18 07:05:27;;;;;;;;;;;;;;;;;;5097831;28;19912;-43
2022/04/18 07:07:52;;;;;;;;;;;;;;;;;;5097468;28;20385;-42
2022/04/18 07:10:17;;;;;;;;;;;;;;;;;;5097686;28;19962;-45
2022/04/18 07:12:42;;;;;;;;;;;;;;;;;;5097517;28;19917;-43
2022/04/18 07:15:08;;;;;;;;;;;;;;;;;;5097822;28;19904;-43
2022/04/18 07:17:33;;;;;;;;;;;;;;;;;;5097692;28;19934;-43
2022/04/18 07:19:58;;;;;;;;;;;;;;;;;;5079743;28;19994;-43
2022/04/18 07:22:23;;;;;;;;;;;;;;;;;;5098371;28;19916;-43
2022/04/18 07:24:49;;;;;;;;;;;;;;;;;;5097347;28;19923;-43
2022/04/18 07:27:14;;;;;;;;;;;;;;;;;;5097640;28;19915;-43
2022/04/18 07:29:39;;;;;;;;;;;;;;;;;;5097438;28;19915;-43
2022/04/18 07:32:05;;;;;;;;;;;;;;;;;;5097348;28;19915;-42
2022/04/18 07:34:33;;;;;;;;;;;;;;;;;;5097529;28;19940;-42
2022/04/18 07:36:58;;;;;;;;;;;;;;;;;;5097400;28;19951;-45
2022/04/18 07:39:23;;;;;;;;;;;;;;;;;;5097186;28;19909;-42
2022/04/18 07:41:48;;;;;;;;;;;;;;;;;;5096949;28;19908;-43
2022/04/18 07:44:13;;;;;;;;;;;;;;;;;;5097212;28;19912;-43
2022/04/18 07:46:38;;;;;;;;;;;;;;;;;;5097205;28;19955;-43
2022/04/18 07:49:03;;;;;;;;;;;;;;;;;;5096744;28;20003;-43
2022/04/18 07:51:32;;;;;;;;;;;;;;;;;;5096722;28;20279;-43
2022/04/18 07:53:57;;;;;;;;;;;;;;;;;;5096896;28;19935;-43
2022/04/18 07:56:22;;;;;;;;;;;;;;;;;;5097220;28;20370;-44
2022/04/18 07:58:47;;;;;;;;;;;;;;;;;;5096533;28;19966;-42
2022/04/18 08:01:12;;;;;;;;;;;;;;;;;;5096866;28;19908;-43
2022/04/18 08:03:37;;;;;;;;;;;;;;;;;;5096542;28;19943;-43
2022/04/18 08:06:02;;;;;;;;;;;;;;;;;;5096484;28;19912;-43
2022/04/18 08:08:28;;;;;;;;;;;;;;;;;;5096445;28;20302;-43
2022/04/18 08:10:53;;;;;;;;;;;;;;;;;;5097071;28;20363;-44
2022/04/18 08:13:18;;;;;;;;;;;;;;;;;;5096364;28;19933;-44
2022/04/18 08:15:43;;;;;;;;;;;;;;;;;;5096951;28;19970;-43
2022/04/18 08:18:08;;;;;;;;;;;;;;;;;;5096152;28;20260;-43
2022/04/18 08:20:33;;;;;;;;;;;;;;;;;;5096602;28;19904;-43
2022/04/18 08:22:58;;;;;;;;;;;;;;;;;;5096719;28;19923;-43
2022/04/18 08:25:23;;;;;;;;;;;;;;;;;;5095928;28;20015;-43
2022/04/18 08:27:49;;;;;;;;;;;;;;;;;;5096324;28;19909;-44
2022/04/18 08:30:14;;;;;;;;;;;;;;;;;;5095808;28;20350;-43
2022/04/18 08:32:39;;;;;;;;;;;;;;;;;;5096150;28;20286;-44
2022/04/18 08:35:04;;;;;;;;;;;;;;;;;;5095848;28;19908;-44
2022/04/18 08:37:29;;;;;;;;;;;;;;;;;;5096229;28;20321;-43
2022/04/18 08:39:54;;;;;;;;;;;;;;;;;;5095738;28;19908;-43
2022/04/18 08:42:20;;;;;;;;;;;;;;;;;;5096055;28;20432;-45
2022/04/18 08:44:45;;;;;;;;;;;;;;;;;;5095915;28;20254;-44
2022/04/18 08:52:43;;;;;;;;;;;;;;;;;;5095969;28;19915;-43
2022/04/18 08:52:53;;;;;;;;;;;;;;;;;;5021323;28;19921;-43
2022/04/18 08:55:18;;;;;;;;;;;;;;;;;;5055503;28;19909;-43
2022/04/18 08:57:43;;;;;;;;;;;;;;;;;;5055082;28;19909;-43
2022/04/18 09:00:08;;;;;;;;;;;;;;;;;;5055454;28;20459;-43
2022/04/18 09:02:33;;;;;;;;;;;;;;;;;;5055322;28;20007;-43
2022/04/18 09:04:58;;;;;;;;;;;;;;;;;;5054996;28;19919;-43
2022/04/18 09:07:24;;;;;;;;;;;;;;;;;;5055163;28;19916;-43
2022/04/18 09:09:54;;;;;;;;;;;;;;;;;;5055129;28;19905;-43
2022/04/18 09:12:19;;;;;;;;;;;;;;;;;;5055798;28;19909;-44
2022/04/18 09:14:48;;;;;;;;;;;;;;;;;;5055549;28;19936;-45
2022/04/18 09:17:13;;;;;;;;;;;;;;;;;;5056707;28;20282;-43
2022/04/18 09:19:38;;;;;;;;;;;;;;;;;;5059514;28;19909;-45
2022/04/18 09:22:03;;;;;;;;;;;;;;;;;;5082093;28;19908;-42
2022/04/18 09:24:34;;;;;;;;;;;;;;;;;;5099446;28;19909;-44
2022/04/18 09:26:59;;;;;;;;;;;;;;;;;;5099386;28;20320;-44
2022/04/18 09:29:25;;;;;;;;;;;;;;;;;;5099404;28;19908;-44
2022/04/18 09:31:50;;;;;;;;;;;;;;;;;;5099787;28;20320;-43
2022/04/18 09:34:15;;;;;;;;;;;;;;;;;;5099660;28;19908;-45
2022/04/18 09:36:40;;;;;;;;;;;;;;;;;;5098500;28;19919;-45
2022/04/18 09:39:05;;;;;;;;;;;;;;;;;;5099320;28;19919;-43
2022/04/18 09:41:30;;;;;;;;;;;;;;;;;;5099294;28;19915;-45
2022/04/18 09:43:56;;;;;;;;;;;;;;;;;;5099099;28;19908;-45
2022/04/18 09:46:21;;;;;;;;;;;;;;;;;;5099089;28;19975;-42
2022/04/18 09:48:46;;;;;;;;;;;;;;;;;;5098865;28;19907;-43
2022/04/18 09:51:11;;;;;;;;;;;;;;;;;;5098849;28;19919;-44
2022/04/18 09:53:36;;;;;;;;;;;;;;;;;;5117967;28;19920;-43
2022/04/18 09:56:01;;;;;;;;;;;;;;;;;;5119384;28;19912;-45
2022/04/18 09:58:26;;;;;;;;;;;;;;;;;;5119343;28;20282;-44
2022/04/18 10:00:52;;;;;;;;;;;;;;;;;;5118768;28;20439;-46
2022/04/18 10:03:17;;;;;;;;;;;;;;;;;;5119041;28;19907;-42
2022/04/18 10:05:42;;;;;;;;;;;;;;;;;;5118574;28;19916;-43
2022/04/18 10:08:07;;;;;;;;;;;;;;;;;;5119089;28;19908;-43
2022/04/18 10:10:32;;;;;;;;;;;;;;;;;;5119220;28;19915;-43
2022/04/18 10:12:57;;;;;;;;;;;;;;;;;;5119281;28;19915;-43
2022/04/18 10:15:23;;;;;;;;;;;;;;;;;;5119029;28;20010;-43
2022/04/18 10:17:48;;;;;;;;;;;;;;;;;;5119194;28;20468;-43
2022/04/18 10:20:14;;;;;;;;;;;;;;;;;;5118806;28;19912;-44
2022/04/18 10:22:39;;;;;;;;;;;;;;;;;;5119102;28;19912;-44
2022/04/18 10:25:04;;;;;;;;;;;;;;;;;;5118579;28;19962;-44
2022/04/18 10:27:30;;;;;;;;;;;;;;;;;;5118427;28;19908;-42
2022/04/18 10:29:56;;;;;;;;;;;;;;;;;;5118771;28;19947;-43
2022/04/18 10:32:22;;;;;;;;;;;;;;;;;;5118651;28;20388;-42
2022/04/18 10:34:47;;;;;;;;;;;;;;;;;;5103516;28;20355;-43
2022/04/18 10:37:12;;;;;;;;;;;;;;;;;;5098395;28;19915;-43
2022/04/18 10:39:37;;;;;;;;;;;;;;;;;;5098267;28;19915;-42
2022/04/18 10:42:02;;;;;;;;;;;;;;;;;;5098400;28;19966;-43
2022/04/18 10:44:27;;;;;;;;;;;;;;;;;;5098171;28;19961;-43
2022/04/18 10:46:55;;;;;;;;;;;;;;;;;;5098526;28;19908;-43
2022/04/18 10:49:20;;;;;;;;;;;;;;;;;;5097933;28;19914;-43
2022/04/18 10:51:45;;;;;;;;;;;;;;;;;;5097614;28;20007;-44
2022/04/18 10:54:10;;;;;;;;;;;;;;;;;;5097801;28;19912;-44
2022/04/18 10:56:35;;;;;;;;;;;;;;;;;;5097351;28;20020;-44
2022/04/18 10:59:01;;;;;;;;;;;;;;;;;;5097672;28;19908;-43
2022/04/18 11:01:26;;;;;;;;;;;;;;;;;;5097723;28;19908;-43
2022/04/18 11:03:51;;;;;;;;;;;;;;;;;;5097829;28;19905;-43
2022/04/18 11:06:16;;;;;;;;;;;;;;;;;;5097511;28;19913;-43
2022/04/18 11:08:41;;;;;;;;;;;;;;;;;;5097426;28;19908;-44
2022/04/18 11:11:06;;;;;;;;;;;;;;;;;;5097620;28;19908;-43
2022/04/18 11:13:32;;;;;;;;;;;;;;;;;;5097247;28;20025;-44
2022/04/18 11:15:57;;;;;;;;;;;;;;;;;;5097195;28;19908;-45
2022/04/18 11:18:22;;;;;;;;;;;;;;;;;;5096961;28;19999;-43
2022/04/18 11:20:47;;;;;;;;;;;;;;;;;;5096864;28;20393;-43
2022/04/18 11:23:13;;;;;;;;;;;;;;;;;;5096905;28;19908;-44
2022/04/18 11:25:38;;;;;;;;;;;;;;;;;;5096384;28;19917;-44
2022/04/18 11:28:03;;;;;;;;;;;;;;;;;;5096733;28;19908;-43
2022/04/18 11:30:28;;;;;;;;;;;;;;;;;;5096612;28;19904;-44
2022/04/18 11:32:53;;;;;;;;;;;;;;;;;;5097040;28;20294;-45
2022/04/18 11:35:18;;;;;;;;;;;;;;;;;;5096700;28;20427;-44
2022/04/18 11:37:43;;;;;;;;;;;;;;;;;;5096591;28;19961;-43
2022/04/18 11:40:09;;;;;;;;;;;;;;;;;;5096076;28;19995;-44
2022/04/18 11:42:34;;;;;;;;;;;;;;;;;;5096496;28;19962;-43
2022/04/18 11:44:59;;;;;;;;;;;;;;;;;;5096631;28;19919;-44
2022/04/18 11:47:24;;;;;;;;;;;;;;;;;;5096670;28;20385;-43
2022/04/18 11:49:50;;;;;;;;;;;;;;;;;;5096578;28;19951;-44
2022/04/18 11:52:16;;;;;;;;;;;;;;;;;;5096985;28;19943;-44
2022/04/18 11:54:41;;;;;;;;;;;;;;;;;;5100737;28;19911;-44
2022/04/18 11:57:06;;;;;;;;;;;;;;;;;;5117311;28;20010;-44
2022/04/18 11:59:32;;;;;;;;;;;;;;;;;;5117438;28;19911;-44
2022/04/18 12:07:25;;;;;;;;;;;;;;;;;;5117073;28;19914;-43
2022/04/18 12:09:50;;;;;;;;;;;;;;;;;;5116736;28;19908;-43
2022/04/18 12:12:16;;;;;;;;;;;;;;;;;;5117093;28;20341;-43
2022/04/18 12:14:41;;;;;;;;;;;;;;;;;;5116304;28;20370;-47
2022/04/18 12:17:06;;;;;;;;;;;;;;;;;;5116244;28;19907;-44
2022/04/18 12:19:31;;;;;;;;;;;;;;;;;;5116170;28;19916;-44
2022/04/18 12:21:57;;;;;;;;;;;;;;;;;;5116194;28;19908;-44
2022/04/18 12:24:22;;;;;;;;;;;;;;;;;;5114422;28;19914;-44
2022/04/18 12:26:47;;;;;;;;;;;;;;;;;;5102981;28;19922;-44
2022/04/18 12:29:12;;;;;;;;;;;;;;;;;;5116528;28;19907;-45
2022/04/18 12:31:37;;;;;;;;;;;;;;;;;;5116399;28;19904;-44
2022/04/18 12:34:02;;;;;;;;;;;;;;;;;;5116111;28;20370;-44
2022/04/18 12:36:28;;;;;;;;;;;;;;;;;;5116244;28;20282;-43
2022/04/18 12:38:53;;;;;;;;;;;;;;;;;;5115974;28;20402;-44
2022/04/18 12:41:18;;;;;;;;;;;;;;;;;;5116113;28;19912;-44
2022/04/18 12:43:43;;;;;;;;;;;;;;;;;;5115722;28;20349;-43
2022/04/18 12:46:09;;;;;;;;;;;;;;;;;;5115517;28;19922;-43
2022/04/18 12:48:34;;;;;;;;;;;;;;;;;;5115724;28;19923;-44
2022/04/18 12:50:59;;;;;;;;;;;;;;;;;;5101881;28;19916;-44
2022/04/18 12:53:24;;;;;;;;;;;;;;;;;;5095149;28;19965;-43
2022/04/18 12:55:49;;;;;;;;;;;;;;;;;;5095144;28;20002;-44
2022/04/18 12:58:14;;;;;;;;;;;;;;;;;;5095398;28;19915;-44
2022/04/18 13:00:39;;;;;;;;;;;;;;;;;;5095325;28;19908;-45
2022/04/18 13:03:05;;;;;;;;;;;;;;;;;;5095341;28;19908;-44
2022/04/18 13:05:30;;;;;;;;;;;;;;;;;;5095535;28;19969;-44
2022/04/18 13:07:55;;;;;;;;;;;;;;;;;;5095342;28;19915;-43
2022/04/18 13:10:20;;;;;;;;;;;;;;;;;;5095447;28;19915;-46
2022/04/18 13:12:45;;;;;;;;;;;;;;;;;;5095004;28;19919;-44
2022/04/18 13:15:11;;;;;;;;;;;;;;;;;;5095219;28;20244;-44
2022/04/18 13:17:37;;;;;;;;;;;;;;;;;;5095365;28;19963;-44
2022/04/18 13:20:06;;;;;;;;;;;;;;;;;;5099234;28;19916;-44
2022/04/18 13:22:32;;;;;;;;;;;;;;;;;;5115646;28;19960;-43
2022/04/18 13:24:57;;;;;;;;;;;;;;;;;;5115466;28;20346;-44
2022/04/18 13:27:22;;;;;;;;;;;;;;;;;;5115489;28;19955;-44
2022/04/18 13:29:47;;;;;;;;;;;;;;;;;;5115702;28;20363;-44
2022/04/18 13:32:12;;;;;;;;;;;;;;;;;;5115436;28;19908;-44
2022/04/18 13:34:37;;;;;;;;;;;;;;;;;;5115508;28;19945;-44
2022/04/18 13:37:03;;;;;;;;;;;;;;;;;;5094527;28;20010;-44
2022/04/18 13:39:28;;;;;;;;;;;;;;;;;;5094788;28;19953;-44
2022/04/18 13:41:53;;;;;;;;;;;;;;;;;;5095021;28;19915;-45
2022/04/18 13:44:18;;;;;;;;;;;;;;;;;;5095020;28;19912;-45
2022/04/18 13:46:43;;;;;;;;;;;;;;;;;;5094771;28;19912;-44
2022/04/18 13:49:09;;;;;;;;;;;;;;;;;;5095164;28;19930;-44
2022/04/18 13:51:35;;;;;;;;;;;;;;;;;;5115685;22;19927;-44
2022/04/18 13:54:01;;;;;;;;;;;;;;;;;;5104751;28;19916;-44
2022/04/18 13:56:26;;;;;;;;;;;;;;;;;;5115165;28;19914;-45
2022/04/18 13:58:51;;;;;;;;;;;;;;;;;;5115219;28;19908;-44
2022/04/18 14:01:16;;;;;;;;;;;;;;;;;;5115480;28;19908;-44
2022/04/18 14:03:42;;;;;;;;;;;;;;;;;;5098603;28;19908;-44
2022/04/18 14:06:07;;;;;;;;;;;;;;;;;;5118716;28;19912;-45
2022/04/18 14:08:33;;;;;;;;;;;;;;;;;;5118547;28;19977;-44
2022/04/18 14:10:58;;;;;;;;;;;;;;;;;;5118710;28;19953;-44
2022/04/18 14:13:23;;;;;;;;;;;;;;;;;;5118498;28;19935;-44
2022/04/18 14:21:16;;;;;;;;;;;;;;;;;;5118181;28;19980;-44
2022/04/18 14:23:41;;;;;;;;;;;;;;;;;;5118266;28;19912;-45
2022/04/18 14:26:06;;;;;;;;;;;;;;;;;;5128097;27;19919;-44
2022/04/18 14:28:32;;;;;;;;;;;;;;;;;;5138790;27;19911;-44
2022/04/18 14:30:57;;;;;;;;;;;;;;;;;;5139061;27;20010;-44
2022/04/18 14:33:22;;;;;;;;;;;;;;;;;;5138928;27;19907;-44
2022/04/18 14:35:47;;;;;;;;;;;;;;;;;;5138912;27;19908;-45
2022/04/18 14:38:14;;;;;;;;;;;;;;;;;;5139041;27;19998;-44
2022/04/18 14:40:39;;;;;;;;;;;;;;;;;;5138661;27;20020;-44
2022/04/18 14:43:05;;;;;;;;;;;;;;;;;;5138182;27;20377;-44
2022/04/18 14:45:30;;;;;;;;;;;;;;;;;;5138131;27;20346;-44
2022/04/18 14:47:55;;;;;;;;;;;;;;;;;;5138488;27;19909;-45
2022/04/18 14:50:21;;;;;;;;;;;;;;;;;;5137759;27;20006;-45
2022/04/18 14:52:46;;;;;;;;;;;;;;;;;;5138340;27;19920;-44
2022/04/18 14:55:11;;;;;;;;;;;;;;;;;;5138606;27;19911;-44
2022/04/18 14:57:36;;;;;;;;;;;;;;;;;;5138583;27;19990;-45
2022/04/18 15:00:01;;;;;;;;;;;;;;;;;;5138290;27;19911;-44
2022/04/18 15:02:27;;;;;;;;;;;;;;;;;;5138472;27;20006;-45
2022/04/18 15:04:52;;;;;;;;;;;;;;;;;;5138463;27;20010;-46
2022/04/18 15:07:17;;;;;;;;;;;;;;;;;;5138280;27;19960;-44
2022/04/18 15:09:42;;;;;;;;;;;;;;;;;;5138142;27;20421;-45
2022/04/18 15:12:07;;;;;;;;;;;;;;;;;;5138297;27;20350;-44
2022/04/18 15:14:32;;;;;;;;;;;;;;;;;;5128656;27;19913;-44
2022/04/18 15:16:57;;;;;;;;;;;;;;;;;;5097164;28;20336;-44
2022/04/18 15:19:23;;;;;;;;;;;;;;;;;;5097342;28;19908;-44
2022/04/18 15:21:48;;;;;;;;;;;;;;;;;;5129637;27;19935;-44
2022/04/18 15:24:13;;;;;;;;;;;;;;;;;;5096949;28;19908;-46
2022/04/18 15:26:38;;;;;;;;;;;;;;;;;;5097038;28;19916;-45
2022/04/18 15:29:03;;;;;;;;;;;;;;;;;;5096961;28;19908;-44
2022/04/18 15:34:12;;;;;;;;;;;;;;;;;;5097152;28;20058;-44
2022/04/18 15:36:37;;;;;;;;;;;;;;;;;;5097040;28;19950;-45
2022/04/18 15:39:02;;;;;;;;;;;;;;;;;;5096594;28;19916;-45
2022/04/18 15:41:28;;;;;;;;;;;;;;;;;;5096780;28;19969;-44
2022/04/18 15:43:53;;;;;;;;;;;;;;;;;;5096649;28;20321;-44
2022/04/18 15:46:18;;;;;;;;;;;;;;;;;;5096785;28;19912;-44
2022/04/18 15:48:43;;;;;;;;;;;;;;;;;;5096634;28;19909;-44
2022/04/18 15:51:08;;;;;;;;;;;;;;;;;;5114094;28;19912;-44
2022/04/18 15:53:35;;;;;;;;;;;;;;;;;;5116843;28;19920;-45
2022/04/18 15:56:00;;;;;;;;;;;;;;;;;;5116945;28;20278;-45
2022/04/18 15:58:25;;;;;;;;;;;;;;;;;;5116611;28;19908;-45
2022/04/18 16:00:50;;;;;;;;;;;;;;;;;;5116835;28;19908;-45
2022/04/18 16:03:16;;;;;;;;;;;;;;;;;;5116339;28;19908;-45
2022/04/18 16:05:42;;;;;;;;;;;;;;;;;;5116094;28;19912;-45
2022/04/18 16:08:07;;;;;;;;;;;;;;;;;;5116509;28;19919;-45
2022/04/18 16:10:32;;;;;;;;;;;;;;;;;;5116275;28;19908;-44
2022/04/18 16:12:57;;;;;;;;;;;;;;;;;;5116317;28;19908;-45
2022/04/18 16:15:23;;;;;;;;;;;;;;;;;;5116194;28;20255;-45
2022/04/18 16:17:48;;;;;;;;;;;;;;;;;;5116116;28;20366;-46
2022/04/18 16:20:15;;;;;;;;;;;;;;;;;;5116144;28;19908;-45
2022/04/18 16:22:40;;;;;;;;;;;;;;;;;;5110209;28;19951;-44
2022/04/18 16:25:06;;;;;;;;;;;;;;;;;;5116780;27;20366;-44
2022/04/18 16:27:31;;;;;;;;;;;;;;;;;;5098912;28;19914;-45
2022/04/18 16:32:40;;;;;;;;;;;;;;;;;;5096217;28;20378;-44
2022/04/18 16:35:05;;;;;;;;;;;;;;;;;;5095534;28;19908;-45
2022/04/18 16:37:30;;;;;;;;;;;;;;;;;;5095688;28;19909;-45
2022/04/18 16:39:55;;;;;;;;;;;;;;;;;;5095531;28;20402;-44
2022/04/18 16:47:48;;;;;;;;;;;;;;;;;;5095924;28;20046;-45
2022/04/18 16:50:14;;;;;;;;;;;;;;;;;;5119231;27;19951;-44
2022/04/18 16:52:39;;;;;;;;;;;;;;;;;;5132383;27;19923;-45
2022/04/18 16:55:04;;;;;;;;;;;;;;;;;;5136382;27;19918;-45
2022/04/18 16:57:29;;;;;;;;;;;;;;;;;;5118113;27;19903;-45
2022/04/18 16:59:57;;;;;;;;;;;;;;;;;;5136401;27;19908;-45
2022/04/18 17:02:22;;;;;;;;;;;;;;;;;;5136174;27;19908;-45
2022/04/18 17:04:48;;;;;;;;;;;;;;;;;;5136502;27;19957;-45
2022/04/18 17:07:13;;;;;;;;;;;;;;;;;;5136272;27;19907;-44